createdAt,value
2023-02-27T00:00:51.126Z,1.90
2023-02-27T00:04:54.759Z,1.70
2023-02-27T00:08:56.582Z,1.48
2023-02-27T00:12:58.387Z,1.88
2023-02-27T00:17:00.398Z,1.80
2023-02-27T00:21:02.154Z,1.83
2023-02-27T00:25:04.905Z,2.00
2023-02-27T00:29:06.794Z,1.40
2023-02-27T00:33:09.032Z,1.98
2023-02-27T00:37:10.778Z,2.00
2023-02-27T00:41:12.513Z,1.70
2023-02-27T00:45:14.294Z,1.70
2023-02-27T00:49:16.116Z,1.73
2023-02-27T00:53:18.072Z,2.10
2023-02-27T00:57:20.144Z,2.10
2023-02-27T01:01:22.359Z,2.10
2023-02-27T01:05:24.101Z,1.85
2023-02-27T01:09:26.509Z,2.10
2023-02-27T01:13:28.260Z,1.90
2023-02-27T01:17:29.969Z,2.65
2023-02-27T01:21:31.693Z,2.20
2023-02-27T01:25:33.487Z,2.30
2023-02-27T01:29:35.242Z,1.60
2023-02-27T01:33:36.979Z,2.00
2023-02-27T01:37:39.283Z,2.00
2023-02-27T01:41:41.485Z,2.15
2023-02-27T01:45:47.883Z,2.00
2023-02-27T01:49:49.973Z,1.92
2023-02-27T01:53:53.444Z,1.83
2023-02-27T01:57:56.946Z,3.10
2023-02-27T02:01:59.085Z,2.40
2023-02-27T02:06:06.028Z,2.08
2023-02-27T02:10:08.382Z,2.42
2023-02-27T02:14:11.052Z,2.60
2023-02-27T02:18:21.864Z,2.30
2023-02-27T02:22:54.728Z,2.80
2023-02-27T02:27:19.528Z,2.42
2023-02-27T02:31:46.846Z,2.17
2023-02-27T02:36:10.385Z,2.20
2023-02-27T02:40:24.575Z,2.13
2023-02-27T02:44:57.260Z,2.05
2023-02-27T02:49:22.853Z,1.88
2023-02-27T02:54:02.455Z,2.17
2023-02-27T02:58:17.256Z,2.08
2023-02-27T03:02:24.273Z,1.83
2023-02-27T03:06:31.582Z,1.80
2023-02-27T03:10:57.711Z,1.92
2023-02-27T03:15:06.564Z,1.70
2023-02-27T03:19:13.569Z,1.70
2023-02-27T03:23:25.337Z,1.88
2023-02-27T03:27:33.746Z,1.60
2023-02-27T03:31:35.676Z,1.60
2023-02-27T03:35:53.907Z,2.10
2023-02-27T03:40:10.574Z,2.38
2023-02-27T03:44:38.262Z,2.13
2023-02-27T03:48:44.651Z,2.90
2023-02-27T03:52:46.611Z,2.10
2023-02-27T03:56:58.881Z,1.90
2023-02-27T04:01:00.642Z,2.63
2023-02-27T04:05:02.373Z,2.40
2023-02-27T04:10:02.360Z,2.20
2023-02-27T04:14:23.244Z,1.90
2023-02-27T04:18:46.665Z,2.15
2023-02-27T04:23:00.809Z,2.30
2023-02-27T04:27:18.930Z,2.00
2023-02-27T04:31:29.373Z,2.20
2023-02-27T04:35:39.030Z,1.95
2023-02-27T04:40:06.506Z,2.42
2023-02-27T04:48:37.238Z,1.80
2023-02-27T04:52:46.996Z,2.30
2023-02-27T04:56:56.053Z,2.28
2023-02-27T05:01:08.190Z,2.55
2023-02-27T05:05:16.558Z,2.10
2023-02-27T05:09:57.173Z,2.20
2023-02-27T05:14:36.758Z,2.47
2023-02-27T05:18:39.113Z,2.60
2023-02-27T05:22:59.325Z,2.47
2023-02-27T05:27:19.361Z,2.97
2023-02-27T05:31:30.106Z,2.47
2023-02-27T05:36:11.739Z,2.00
2023-02-27T05:40:22.327Z,2.50
2023-02-27T05:44:30.146Z,2.95
2023-02-27T05:48:46.338Z,2.30
2023-02-27T05:52:51.252Z,2.83
2023-02-27T05:56:57.351Z,2.60
2023-02-27T06:01:08.372Z,2.88
2023-02-27T06:05:10.550Z,2.47
2023-02-27T06:09:12.267Z,2.20
2023-02-27T06:13:15.064Z,2.28
2023-02-27T06:17:16.861Z,3.20
2023-02-27T06:21:18.909Z,2.75
2023-02-27T06:25:22.085Z,3.08
2023-02-27T06:29:23.787Z,2.83
2023-02-27T06:33:26.181Z,3.10
2023-02-27T06:37:27.910Z,3.50
2023-02-27T06:41:29.663Z,3.28
2023-02-27T06:45:31.398Z,2.97
2023-02-27T06:49:33.128Z,3.22
2023-02-27T06:53:35.016Z,3.10
2023-02-27T06:57:36.971Z,3.22
2023-02-27T07:01:38.901Z,3.30
2023-02-27T07:05:41.823Z,3.40
2023-02-27T07:09:43.552Z,3.05
2023-02-27T07:13:45.259Z,2.28
2023-02-27T07:17:46.985Z,3.33
2023-02-27T07:21:48.696Z,3.33
2023-02-27T07:25:50.767Z,3.58
2023-02-27T07:29:52.816Z,2.78
2023-02-27T07:33:54.543Z,2.97
2023-02-27T07:37:56.244Z,2.67
2023-02-27T07:41:57.982Z,3.30
2023-02-27T07:45:59.711Z,3.05
2023-02-27T07:50:01.463Z,3.20
2023-02-27T07:54:03.332Z,3.55
2023-02-27T07:58:05.112Z,3.50
2023-02-27T08:02:07.517Z,2.95
2023-02-27T08:06:09.241Z,3.25
2023-02-27T08:10:13.055Z,2.78
2023-02-27T08:14:15.130Z,3.05
2023-02-27T08:18:16.869Z,3.28
2023-02-27T08:22:18.569Z,2.63
2023-02-27T08:26:21.437Z,2.90
2023-02-27T08:30:23.237Z,2.42
2023-02-27T08:34:25.853Z,2.53
2023-02-27T08:38:27.606Z,2.40
2023-02-27T08:42:29.399Z,2.25
2023-02-27T08:46:31.120Z,2.13
2023-02-27T08:50:32.931Z,2.25
2023-02-27T08:54:34.693Z,2.10
2023-02-27T08:58:36.443Z,2.53
2023-02-27T09:02:38.217Z,2.10
2023-02-27T09:06:40.305Z,2.45
2023-02-27T09:10:42.027Z,2.17
2023-02-27T09:14:43.846Z,2.38
2023-02-27T09:18:46.236Z,2.30
2023-02-27T09:22:47.948Z,2.58
2023-02-27T09:26:50.122Z,2.30
2023-02-27T09:37:00.230Z,2.60
2023-02-27T09:41:03.560Z,2.63
2023-02-27T09:51:30.982Z,3.35
2023-02-27T09:55:38.672Z,2.60
2023-02-27T09:59:48.440Z,3.00
2023-02-27T10:03:59.062Z,2.83
2023-02-27T10:08:17.353Z,2.80
2023-02-27T10:12:33.463Z,2.72
2023-02-27T10:16:35.348Z,2.30
2023-02-27T10:20:42.866Z,2.15
2023-02-27T10:24:50.202Z,2.80
2023-02-27T10:28:52.490Z,2.50
2023-02-27T10:33:01.407Z,3.22
2023-02-27T10:37:06.375Z,2.47
2023-02-27T10:41:13.788Z,2.97
2023-02-27T10:45:16.711Z,2.83
2023-02-27T10:49:22.261Z,2.70
2023-02-27T10:53:27.070Z,2.88
2023-02-27T10:57:33.523Z,3.00
2023-02-27T11:01:44.671Z,2.70
2023-02-27T11:05:55.118Z,2.60
2023-02-27T11:10:21.611Z,2.83
2023-02-27T11:14:27.089Z,2.70
2023-02-27T11:18:30.200Z,2.90
2023-02-27T11:22:32.652Z,2.40
2023-02-27T11:26:40.684Z,2.60
2023-02-27T11:30:43.957Z,2.97
2023-02-27T11:34:51.417Z,2.70
2023-02-27T11:38:54.745Z,2.80
2023-02-27T11:43:01.077Z,3.00
2023-02-27T11:47:13.711Z,2.93
2023-02-27T11:56:43.195Z,3.00
2023-02-27T12:01:06.096Z,3.20
2023-02-27T12:05:23.004Z,3.35
2023-02-27T12:09:48.640Z,3.20
2023-02-27T12:13:58.865Z,2.85
2023-02-27T12:18:12.508Z,2.67
2023-02-27T12:22:29.490Z,2.97
2023-02-27T12:26:42.073Z,2.97
2023-02-27T12:30:52.685Z,3.10
2023-02-27T12:35:01.248Z,3.33
2023-02-27T12:39:04.721Z,2.63
2023-02-27T12:43:31.257Z,2.55
2023-02-27T12:47:54.864Z,3.38
2023-02-27T12:52:01.190Z,3.17
2023-02-27T12:56:05.914Z,3.07
2023-02-27T13:00:15.019Z,3.90
2023-02-27T13:04:28.276Z,2.70
2023-02-27T13:08:44.384Z,3.00
2023-02-27T13:12:58.168Z,2.97
2023-02-27T13:17:19.303Z,4.35
2023-02-27T13:21:23.999Z,3.00
2023-02-27T13:25:26.984Z,4.15
2023-02-27T13:29:37.394Z,2.58
2023-02-27T13:34:04.932Z,3.00
2023-02-27T13:38:34.523Z,3.25
2023-02-27T13:42:36.182Z,3.75
2023-02-27T13:46:37.910Z,5.10
2023-02-27T13:50:50.379Z,5.18
2023-02-27T13:54:55.221Z,4.70
2023-02-27T13:59:19.949Z,4.07
2023-02-27T14:03:25.828Z,3.05
2023-02-27T14:07:32.116Z,3.80
2023-02-27T14:11:39.755Z,2.87
2023-02-27T14:15:47.362Z,2.80
2023-02-27T14:19:50.901Z,3.08
2023-02-27T14:23:54.536Z,3.13
2023-02-27T14:27:58.626Z,3.20
2023-02-27T14:32:03.980Z,3.50
2023-02-27T14:36:09.568Z,2.90
2023-02-27T14:40:29.934Z,3.40
2023-02-27T14:44:43.125Z,3.08
2023-02-27T14:48:45.562Z,3.08
2023-02-27T14:52:47.316Z,2.50
2023-02-27T14:57:00.672Z,2.60
2023-02-27T15:01:07.653Z,2.67
2023-02-27T15:05:19.592Z,2.83
2023-02-27T15:09:35.983Z,3.17
2023-02-27T15:13:39.734Z,2.85
2023-02-27T15:17:43.645Z,2.70
2023-02-27T15:21:58.573Z,2.88
2023-02-27T15:26:00.599Z,2.80
2023-02-27T15:30:04.150Z,2.60
2023-02-27T15:34:14.536Z,3.03
2023-02-27T15:38:34.396Z,2.70
2023-02-27T15:42:37.475Z,2.90
2023-02-27T15:46:39.856Z,2.70
2023-02-27T15:50:44.366Z,2.53
2023-02-27T15:55:04.899Z,2.35
2023-02-27T15:59:07.509Z,2.60
2023-02-27T16:03:09.774Z,2.15
2023-02-27T16:07:20.336Z,2.03
2023-02-27T16:11:24.767Z,2.03
2023-02-27T16:15:30.933Z,2.00
2023-02-27T16:19:32.728Z,1.57
2023-02-27T16:23:35.233Z,3.15
2023-02-27T16:27:39.012Z,2.60
2023-02-27T16:31:47.641Z,2.05
2023-02-27T16:35:50.849Z,2.10
2023-02-27T16:39:54.370Z,2.38
2023-02-27T16:43:56.380Z,2.17
2023-02-27T16:48:00.079Z,1.80
2023-02-27T16:52:03.313Z,1.90
2023-02-27T16:56:05.350Z,2.20
2023-02-27T17:00:07.910Z,2.40
2023-02-27T17:04:24.636Z,2.10
2023-02-27T17:08:27.213Z,2.20
2023-02-27T17:12:28.913Z,2.20
2023-02-27T17:16:30.960Z,2.33
2023-02-27T17:20:32.951Z,2.17
2023-02-27T17:24:34.734Z,2.00
2023-02-27T17:28:36.698Z,2.28
2023-02-27T17:32:38.788Z,2.40
2023-02-27T17:36:40.525Z,2.00
2023-02-27T17:40:42.219Z,2.20
2023-02-27T17:44:47.676Z,2.50
2023-02-27T17:48:49.694Z,2.40
2023-02-27T17:52:51.500Z,2.08
2023-02-27T17:56:53.261Z,2.60
2023-02-27T18:00:54.968Z,1.63
2023-02-27T18:04:57.621Z,2.42
2023-02-27T18:08:59.556Z,2.10
2023-02-27T18:13:01.244Z,2.45
2023-02-27T18:17:03.243Z,2.47
2023-02-27T18:21:09.251Z,2.00
2023-02-27T18:25:11.230Z,2.13
2023-02-27T18:29:14.071Z,2.50
2023-02-27T18:33:15.984Z,2.58
2023-02-27T18:37:17.658Z,2.53
2023-02-27T18:41:19.313Z,2.60
2023-02-27T18:45:21.639Z,3.00
2023-02-27T18:49:23.441Z,2.92
2023-02-27T18:53:25.115Z,2.63
2023-02-27T18:57:26.878Z,2.50
2023-02-27T19:01:30.637Z,3.38
2023-02-27T19:05:32.362Z,2.97
2023-02-27T19:09:34.481Z,2.90
2023-02-27T19:13:36.284Z,2.42
2023-02-27T19:17:38.043Z,2.10
2023-02-27T19:21:40.067Z,2.78
2023-02-27T19:25:42.449Z,2.60
2023-02-27T19:29:44.246Z,2.80
2023-02-27T19:33:45.989Z,2.90
2023-02-27T19:37:53.519Z,2.97
2023-02-27T19:41:55.260Z,2.67
2023-02-27T19:45:57.642Z,2.70
2023-02-27T19:49:59.486Z,2.60
2023-02-27T19:54:01.252Z,2.75
2023-02-27T19:58:03.201Z,2.53
2023-02-27T20:02:04.938Z,3.35
2023-02-27T20:06:15.065Z,2.58
2023-02-27T20:10:17.070Z,3.03
2023-02-27T20:14:18.785Z,3.00
2023-02-27T20:18:20.472Z,2.60
2023-02-27T20:22:22.508Z,2.72
2023-02-27T20:26:30.724Z,2.65
2023-02-27T20:30:32.544Z,2.88
2023-02-27T20:34:34.423Z,2.85
2023-02-27T20:38:39.425Z,3.00
2023-02-27T20:42:41.181Z,2.45
2023-02-27T20:46:44.218Z,2.60
2023-02-27T20:50:46.447Z,2.92
2023-02-27T20:54:48.151Z,3.25
2023-02-27T20:58:50.048Z,2.72
2023-02-27T21:02:51.885Z,2.97
2023-02-27T21:06:54.939Z,2.67
2023-02-27T21:10:56.756Z,3.00
2023-02-27T21:14:58.487Z,2.85
2023-02-27T21:19:00.245Z,3.13
2023-02-27T21:23:01.978Z,2.60
2023-02-27T21:27:03.816Z,2.55
2023-02-27T21:31:06.166Z,3.30
2023-02-27T21:35:08.535Z,2.70
2023-02-27T21:39:19.119Z,2.53
2023-02-27T21:43:21.301Z,3.00
2023-02-27T21:47:23.067Z,2.60
2023-02-27T21:51:39.550Z,2.50
2023-02-27T21:55:42.376Z,2.50
2023-02-27T21:59:44.083Z,2.95
2023-02-27T22:03:47.360Z,3.13
2023-02-27T22:07:49.220Z,3.10
2023-02-27T22:11:51.011Z,2.88
2023-02-27T22:15:54.425Z,2.72
2023-02-27T22:19:56.111Z,2.72
2023-02-27T22:23:58.022Z,3.22
2023-02-27T22:27:59.865Z,3.47
2023-02-27T22:32:01.916Z,3.03
2023-02-27T22:36:12.924Z,2.88
2023-02-27T22:40:16.341Z,3.28
2023-02-27T22:44:18.199Z,2.70
2023-02-27T22:48:19.953Z,2.60
2023-02-27T22:58:15.643Z,2.60
2023-02-27T23:02:17.378Z,2.85
2023-02-27T23:06:25.124Z,2.40
2023-02-27T23:10:26.783Z,2.25
2023-02-27T23:14:28.923Z,3.17
2023-02-27T23:18:30.630Z,2.70
2023-02-27T23:22:33.620Z,2.92
2023-02-27T23:26:40.411Z,2.75
2023-02-27T23:34:49.279Z,2.63
2023-02-27T23:38:51.479Z,3.55
2023-02-27T23:43:12.797Z,3.42
2023-02-27T23:47:33.244Z,3.10
2023-02-27T23:51:35.467Z,3.28
2023-02-27T23:55:38.227Z,3.60
2023-02-27T23:59:39.959Z,2.47
